sensor_id;sensor_type;location;lat;lon;timestamp;P1;durP1;ratioP1;P2;durP2;ratioP2
18066;SDS011;9158;51.528;7.192;2022-10-13T00:00:01;13.13;;;8.90;;
18066;SDS011;9158;51.528;7.192;2022-10-13T00:00:42;13.57;;;8.35;;
18066;SDS011;9158;51.528;7.192;2022-10-13T00:01:16;11.43;;;8.32;;
18066;SDS011;9158;51.528;7.192;2022-10-13T00:01:49;13.48;;;8.30;;
18066;SDS011;9158;51.528;7.192;2022-10-13T00:02:20;15.07;;;10.50;;
18066;SDS011;9158;51.528;7.192;2022-10-13T00:02:52;13.32;;;9.77;;
18066;SDS011;9158;51.528;7.192;2022-10-13T00:03:23;9.20;;;8.30;;
18066;SDS011;9158;51.528;7.192;2022-10-13T00:03:54;12.95;;;10.40;;
18066;SDS011;9158;51.528;7.192;2022-10-13T00:04:26;13.95;;;9.20;;
18066;SDS011;9158;51.528;7.192;2022-10-13T00:04:57;12.03;;;9.20;;
18066;SDS011;9158;51.528;7.192;2022-10-13T00:05:29;11.63;;;9.15;;
18066;SDS011;9158;51.528;7.192;2022-10-13T00:06:03;12.80;;;9.18;;
18066;SDS011;9158;51.528;7.192;2022-10-13T00:06:36;16.48;;;9.23;;
18066;SDS011;9158;51.528;7.192;2022-10-13T00:07:07;11.37;;;9.30;;
18066;SDS011;9158;51.528;7.192;2022-10-13T00:07:38;11.57;;;10.37;;
18066;SDS011;9158;51.528;7.192;2022-10-13T00:08:10;10.43;;;9.00;;
18066;SDS011;9158;51.528;7.192;2022-10-13T00:08:46;10.93;;;7.95;;
18066;SDS011;9158;51.528;7.192;2022-10-13T00:09:17;16.48;;;9.85;;
18066;SDS011;9158;51.528;7.192;2022-10-13T00:09:49;11.70;;;8.35;;
18066;SDS011;9158;51.528;7.192;2022-10-13T00:10:20;16.05;;;10.50;;
18066;SDS011;9158;51.528;7.192;2022-10-13T00:10:51;13.75;;;9.30;;
18066;SDS011;9158;51.528;7.192;2022-10-13T00:11:27;12.05;;;8.85;;
18066;SDS011;9158;51.528;7.192;2022-10-13T00:12:00;14.18;;;8.75;;
18066;SDS011;9158;51.528;7.192;2022-10-13T00:12:33;12.75;;;9.38;;
18066;SDS011;9158;51.528;7.192;2022-10-13T00:13:08;9.93;;;7.72;;
18066;SDS011;9158;51.528;7.192;2022-10-13T00:13:39;10.32;;;8.65;;
18066;SDS011;9158;51.528;7.192;2022-10-13T00:14:10;12.80;;;8.88;;
18066;SDS011;9158;51.528;7.192;2022-10-13T00:14:42;12.00;;;8.50;;
18066;SDS011;9158;51.528;7.192;2022-10-13T00:15:13;13.67;;;9.30;;
18066;SDS011;9158;51.528;7.192;2022-10-13T00:15:44;13.98;;;8.82;;
18066;SDS011;9158;51.528;7.192;2022-10-13T00:16:17;11.75;;;9.13;;
18066;SDS011;9158;51.528;7.192;2022-10-13T00:16:50;11.63;;;8.65;;
18066;SDS011;9158;51.528;7.192;2022-10-13T00:17:20;14.57;;;9.83;;
18066;SDS011;9158;51.528;7.192;2022-10-13T00:17:53;13.43;;;9.40;;
18066;SDS011;9158;51.528;7.192;2022-10-13T00:18:24;15.13;;;8.35;;
18066;SDS011;9158;51.528;7.192;2022-10-13T00:19:00;13.23;;;8.73;;
18066;SDS011;9158;51.528;7.192;2022-10-13T00:19:32;13.10;;;8.93;;
18066;SDS011;9158;51.528;7.192;2022-10-13T00:20:04;11.80;;;9.07;;
18066;SDS011;9158;51.528;7.192;2022-10-13T00:20:39;15.20;;;9.35;;
18066;SDS011;9158;51.528;7.192;2022-10-13T00:21:12;12.25;;;8.65;;
18066;SDS011;9158;51.528;7.192;2022-10-13T00:21:46;10.40;;;9.25;;
18066;SDS011;9158;51.528;7.192;2022-10-13T00:22:17;13.10;;;8.70;;
18066;SDS011;9158;51.528;7.192;2022-10-13T00:22:49;14.25;;;9.23;;
18066;SDS011;9158;51.528;7.192;2022-10-13T00:23:21;12.40;;;8.32;;
18066;SDS011;9158;51.528;7.192;2022-10-13T00:23:52;15.63;;;9.05;;
18066;SDS011;9158;51.528;7.192;2022-10-13T00:24:24;12.60;;;8.35;;
18066;SDS011;9158;51.528;7.192;2022-10-13T00:24:56;12.82;;;9.63;;
18066;SDS011;9158;51.528;7.192;2022-10-13T00:25:27;12.10;;;8.83;;
18066;SDS011;9158;51.528;7.192;2022-10-13T00:25:58;12.57;;;9.00;;
18066;SDS011;9158;51.528;7.192;2022-10-13T00:26:33;11.23;;;8.10;;
18066;SDS011;9158;51.528;7.192;2022-10-13T00:27:06;10.90;;;8.43;;
18066;SDS011;9158;51.528;7.192;2022-10-13T00:27:38;12.02;;;8.40;;
18066;SDS011;9158;51.528;7.192;2022-10-13T00:28:10;13.82;;;9.48;;
18066;SDS011;9158;51.528;7.192;2022-10-13T00:28:41;11.35;;;8.73;;
18066;SDS011;9158;51.528;7.192;2022-10-13T00:29:12;14.13;;;9.00;;
18066;SDS011;9158;51.528;7.192;2022-10-13T00:29:44;12.27;;;8.75;;
18066;SDS011;9158;51.528;7.192;2022-10-13T00:30:16;11.20;;;8.52;;
18066;SDS011;9158;51.528;7.192;2022-10-13T00:30:47;10.85;;;8.23;;
18066;SDS011;9158;51.528;7.192;2022-10-13T00:31:20;12.30;;;7.95;;
18066;SDS011;9158;51.528;7.192;2022-10-13T00:31:53;14.20;;;8.32;;
18066;SDS011;9158;51.528;7.192;2022-10-13T00:32:24;16.13;;;9.20;;
18066;SDS011;9158;51.528;7.192;2022-10-13T00:32:55;13.90;;;10.18;;
18066;SDS011;9158;51.528;7.192;2022-10-13T00:33:26;15.70;;;9.77;;
18066;SDS011;9158;51.528;7.192;2022-10-13T00:33:58;13.17;;;8.80;;
18066;SDS011;9158;51.528;7.192;2022-10-13T00:34:30;12.93;;;8.52;;
18066;SDS011;9158;51.528;7.192;2022-10-13T00:35:02;19.92;;;8.50;;
18066;SDS011;9158;51.528;7.192;2022-10-13T00:35:33;14.75;;;8.40;;
18066;SDS011;9158;51.528;7.192;2022-10-13T00:36:10;15.25;;;9.13;;
18066;SDS011;9158;51.528;7.192;2022-10-13T00:36:41;14.10;;;8.55;;
18066;SDS011;9158;51.528;7.192;2022-10-13T00:37:13;15.30;;;9.38;;
18066;SDS011;9158;51.528;7.192;2022-10-13T00:37:44;12.63;;;8.50;;
18066;SDS011;9158;51.528;7.192;2022-10-13T00:38:15;10.47;;;7.93;;
18066;SDS011;9158;51.528;7.192;2022-10-13T00:38:47;11.05;;;8.20;;
18066;SDS011;9158;51.528;7.192;2022-10-13T00:39:20;10.25;;;8.55;;
18066;SDS011;9158;51.528;7.192;2022-10-13T00:39:50;8.83;;;7.93;;
18066;SDS011;9158;51.528;7.192;2022-10-13T00:40:23;13.00;;;7.80;;
18066;SDS011;9158;51.528;7.192;2022-10-13T00:40:55;13.45;;;8.65;;
18066;SDS011;9158;51.528;7.192;2022-10-13T00:41:26;10.57;;;8.82;;
18066;SDS011;9158;51.528;7.192;2022-10-13T00:41:57;14.23;;;10.20;;
18066;SDS011;9158;51.528;7.192;2022-10-13T00:42:30;11.07;;;8.82;;
18066;SDS011;9158;51.528;7.192;2022-10-13T00:43:04;14.55;;;8.45;;
18066;SDS011;9158;51.528;7.192;2022-10-13T00:43:47;13.20;;;7.88;;
18066;SDS011;9158;51.528;7.192;2022-10-13T00:45:27;11.75;;;9.27;;
18066;SDS011;9158;51.528;7.192;2022-10-13T00:46:00;11.30;;;7.85;;
18066;SDS011;9158;51.528;7.192;2022-10-13T00:46:31;12.40;;;8.77;;
18066;SDS011;9158;51.528;7.192;2022-10-13T00:47:04;8.93;;;7.55;;
18066;SDS011;9158;51.528;7.192;2022-10-13T00:47:37;13.45;;;8.18;;
18066;SDS011;9158;51.528;7.192;2022-10-13T00:48:11;10.35;;;8.13;;
18066;SDS011;9158;51.528;7.192;2022-10-13T00:48:42;11.27;;;8.13;;
18066;SDS011;9158;51.528;7.192;2022-10-13T00:49:14;12.95;;;8.63;;
18066;SDS011;9158;51.528;7.192;2022-10-13T00:49:49;13.00;;;8.13;;
18066;SDS011;9158;51.528;7.192;2022-10-13T00:50:23;12.52;;;7.97;;
18066;SDS011;9158;51.528;7.192;2022-10-13T00:50:58;10.25;;;8.23;;
18066;SDS011;9158;51.528;7.192;2022-10-13T00:51:31;16.52;;;8.88;;
18066;SDS011;9158;51.528;7.192;2022-10-13T00:52:07;12.27;;;8.20;;
18066;SDS011;9158;51.528;7.192;2022-10-13T00:52:38;15.80;;;9.02;;
18066;SDS011;9158;51.528;7.192;2022-10-13T00:53:14;11.80;;;7.97;;
18066;SDS011;9158;51.528;7.192;2022-10-13T00:53:47;14.50;;;8.48;;
18066;SDS011;9158;51.528;7.192;2022-10-13T00:54:20;11.27;;;8.88;;
18066;SDS011;9158;51.528;7.192;2022-10-13T00:54:55;13.40;;;8.05;;
18066;SDS011;9158;51.528;7.192;2022-10-13T00:55:30;10.15;;;8.10;;
18066;SDS011;9158;51.528;7.192;2022-10-13T00:56:03;8.20;;;7.40;;
18066;SDS011;9158;51.528;7.192;2022-10-13T00:56:37;12.23;;;8.38;;
18066;SDS011;9158;51.528;7.192;2022-10-13T00:57:12;13.48;;;8.60;;
18066;SDS011;9158;51.528;7.192;2022-10-13T00:57:44;12.18;;;7.68;;
18066;SDS011;9158;51.528;7.192;2022-10-13T00:58:18;10.68;;;9.10;;
18066;SDS011;9158;51.528;7.192;2022-10-13T00:58:53;14.75;;;8.13;;
18066;SDS011;9158;51.528;7.192;2022-10-13T00:59:25;12.00;;;8.35;;
18066;SDS011;9158;51.528;7.192;2022-10-13T00:59:58;17.27;;;8.05;;
18066;SDS011;9158;51.528;7.192;2022-10-13T01:00:31;12.95;;;8.30;;
18066;SDS011;9158;51.528;7.192;2022-10-13T01:01:02;11.65;;;8.30;;
18066;SDS011;9158;51.528;7.192;2022-10-13T01:01:34;10.85;;;7.90;;
18066;SDS011;9158;51.528;7.192;2022-10-13T01:02:05;11.45;;;8.50;;
18066;SDS011;9158;51.528;7.192;2022-10-13T01:02:38;12.65;;;8.27;;
18066;SDS011;9158;51.528;7.192;2022-10-13T01:03:09;11.63;;;8.15;;
18066;SDS011;9158;51.528;7.192;2022-10-13T01:03:40;11.95;;;8.45;;
18066;SDS011;9158;51.528;7.192;2022-10-13T01:04:12;10.90;;;8.50;;
18066;SDS011;9158;51.528;7.192;2022-10-13T01:04:44;13.82;;;8.48;;
18066;SDS011;9158;51.528;7.192;2022-10-13T01:05:17;9.93;;;7.43;;
18066;SDS011;9158;51.528;7.192;2022-10-13T01:05:49;9.30;;;7.28;;
18066;SDS011;9158;51.528;7.192;2022-10-13T01:06:23;13.15;;;9.80;;
18066;SDS011;9158;51.528;7.192;2022-10-13T01:06:55;9.82;;;7.70;;
18066;SDS011;9158;51.528;7.192;2022-10-13T01:07:27;15.00;;;8.70;;
18066;SDS011;9158;51.528;7.192;2022-10-13T01:08:00;10.05;;;8.15;;
18066;SDS011;9158;51.528;7.192;2022-10-13T01:08:32;11.15;;;7.63;;
18066;SDS011;9158;51.528;7.192;2022-10-13T01:09:03;11.13;;;8.40;;
18066;SDS011;9158;51.528;7.192;2022-10-13T01:09:35;12.90;;;8.25;;
18066;SDS011;9158;51.528;7.192;2022-10-13T01:10:07;12.45;;;8.18;;
18066;SDS011;9158;51.528;7.192;2022-10-13T01:10:41;13.32;;;8.15;;
18066;SDS011;9158;51.528;7.192;2022-10-13T01:11:32;15.65;;;7.35;;
18066;SDS011;9158;51.528;7.192;2022-10-13T01:12:13;10.10;;;7.40;;
18066;SDS011;9158;51.528;7.192;2022-10-13T01:12:59;11.05;;;7.65;;
18066;SDS011;9158;51.528;7.192;2022-10-13T01:13:35;13.98;;;8.50;;
18066;SDS011;9158;51.528;7.192;2022-10-13T01:14:23;10.32;;;8.02;;
18066;SDS011;9158;51.528;7.192;2022-10-13T01:15:02;16.00;;;8.40;;
18066;SDS011;9158;51.528;7.192;2022-10-13T01:15:40;12.15;;;8.40;;
18066;SDS011;9158;51.528;7.192;2022-10-13T01:16:16;12.85;;;8.30;;
18066;SDS011;9158;51.528;7.192;2022-10-13T01:16:56;10.73;;;8.55;;
18066;SDS011;9158;51.528;7.192;2022-10-13T01:17:35;11.70;;;7.63;;
18066;SDS011;9158;51.528;7.192;2022-10-13T01:18:15;10.75;;;7.95;;
18066;SDS011;9158;51.528;7.192;2022-10-13T01:18:54;10.23;;;7.32;;
18066;SDS011;9158;51.528;7.192;2022-10-13T01:19:40;11.30;;;7.30;;
18066;SDS011;9158;51.528;7.192;2022-10-13T01:21:44;12.35;;;7.35;;
18066;SDS011;9158;51.528;7.192;2022-10-13T01:22:27;9.00;;;7.80;;
18066;SDS011;9158;51.528;7.192;2022-10-13T01:24:27;10.75;;;7.20;;
18066;SDS011;9158;51.528;7.192;2022-10-13T01:25:15;13.95;;;7.32;;
18066;SDS011;9158;51.528;7.192;2022-10-13T01:26:05;10.75;;;7.60;;
18066;SDS011;9158;51.528;7.192;2022-10-13T01:27:03;12.68;;;8.27;;
18066;SDS011;9158;51.528;7.192;2022-10-13T01:27:47;15.23;;;7.72;;
18066;SDS011;9158;51.528;7.192;2022-10-13T01:28:39;9.93;;;7.38;;
18066;SDS011;9158;51.528;7.192;2022-10-13T01:29:31;9.02;;;6.93;;
18066;SDS011;9158;51.528;7.192;2022-10-13T01:30:25;11.80;;;8.13;;
18066;SDS011;9158;51.528;7.192;2022-10-13T01:30:59;10.50;;;8.05;;
18066;SDS011;9158;51.528;7.192;2022-10-13T01:31:36;11.38;;;8.00;;
18066;SDS011;9158;51.528;7.192;2022-10-13T01:32:14;10.25;;;8.07;;
18066;SDS011;9158;51.528;7.192;2022-10-13T01:32:54;10.70;;;6.90;;
18066;SDS011;9158;51.528;7.192;2022-10-13T01:33:44;14.63;;;8.55;;
18066;SDS011;9158;51.528;7.192;2022-10-13T01:34:25;11.73;;;7.90;;
18066;SDS011;9158;51.528;7.192;2022-10-13T01:35:03;10.90;;;8.55;;
18066;SDS011;9158;51.528;7.192;2022-10-13T01:35:41;12.18;;;8.57;;
18066;SDS011;9158;51.528;7.192;2022-10-13T01:36:24;12.77;;;8.02;;
18066;SDS011;9158;51.528;7.192;2022-10-13T01:37:04;9.30;;;7.78;;
18066;SDS011;9158;51.528;7.192;2022-10-13T01:37:42;10.95;;;8.07;;
18066;SDS011;9158;51.528;7.192;2022-10-13T01:38:20;13.88;;;9.13;;
18066;SDS011;9158;51.528;7.192;2022-10-13T01:38:59;11.10;;;7.70;;
18066;SDS011;9158;51.528;7.192;2022-10-13T01:39:38;10.32;;;8.05;;
18066;SDS011;9158;51.528;7.192;2022-10-13T01:40:14;10.80;;;8.15;;
18066;SDS011;9158;51.528;7.192;2022-10-13T01:40:55;10.05;;;7.53;;
18066;SDS011;9158;51.528;7.192;2022-10-13T01:41:31;10.38;;;8.25;;
18066;SDS011;9158;51.528;7.192;2022-10-13T01:42:10;8.43;;;6.82;;
18066;SDS011;9158;51.528;7.192;2022-10-13T01:42:47;9.65;;;7.93;;
18066;SDS011;9158;51.528;7.192;2022-10-13T01:43:23;14.55;;;7.90;;
18066;SDS011;9158;51.528;7.192;2022-10-13T01:43:59;14.02;;;7.93;;
18066;SDS011;9158;51.528;7.192;2022-10-13T01:44:36;10.55;;;8.32;;
18066;SDS011;9158;51.528;7.192;2022-10-13T01:45:11;11.35;;;8.32;;
18066;SDS011;9158;51.528;7.192;2022-10-13T01:45:49;9.95;;;7.78;;
18066;SDS011;9158;51.528;7.192;2022-10-13T01:46:25;11.90;;;8.13;;
18066;SDS011;9158;51.528;7.192;2022-10-13T01:47:00;13.30;;;8.65;;
18066;SDS011;9158;51.528;7.192;2022-10-13T01:47:32;10.10;;;8.13;;
18066;SDS011;9158;51.528;7.192;2022-10-13T01:48:05;15.23;;;8.57;;
18066;SDS011;9158;51.528;7.192;2022-10-13T01:48:44;10.85;;;8.20;;
18066;SDS011;9158;51.528;7.192;2022-10-13T01:49:16;13.63;;;7.80;;
18066;SDS011;9158;51.528;7.192;2022-10-13T01:49:49;9.98;;;7.80;;
18066;SDS011;9158;51.528;7.192;2022-10-13T01:50:23;9.90;;;7.82;;
18066;SDS011;9158;51.528;7.192;2022-10-13T01:50:54;11.63;;;8.05;;
18066;SDS011;9158;51.528;7.192;2022-10-13T01:51:28;11.07;;;8.18;;
18066;SDS011;9158;51.528;7.192;2022-10-13T01:52:02;12.10;;;8.27;;
18066;SDS011;9158;51.528;7.192;2022-10-13T01:52:37;10.80;;;8.18;;
18066;SDS011;9158;51.528;7.192;2022-10-13T01:53:09;10.52;;;7.70;;
18066;SDS011;9158;51.528;7.192;2022-10-13T01:53:41;11.73;;;8.15;;
18066;SDS011;9158;51.528;7.192;2022-10-13T01:54:15;11.93;;;9.43;;
18066;SDS011;9158;51.528;7.192;2022-10-13T01:54:46;11.70;;;7.85;;
18066;SDS011;9158;51.528;7.192;2022-10-13T01:55:17;8.93;;;7.45;;
18066;SDS011;9158;51.528;7.192;2022-10-13T01:55:50;12.25;;;8.57;;
18066;SDS011;9158;51.528;7.192;2022-10-13T01:56:22;13.40;;;8.18;;
18066;SDS011;9158;51.528;7.192;2022-10-13T01:56:53;10.95;;;9.02;;
18066;SDS011;9158;51.528;7.192;2022-10-13T01:57:25;12.25;;;9.05;;
18066;SDS011;9158;51.528;7.192;2022-10-13T01:58:01;9.52;;;8.15;;
18066;SDS011;9158;51.528;7.192;2022-10-13T01:58:33;11.15;;;7.60;;
18066;SDS011;9158;51.528;7.192;2022-10-13T01:59:06;13.35;;;7.72;;
18066;SDS011;9158;51.528;7.192;2022-10-13T01:59:43;9.23;;;7.68;;
18066;SDS011;9158;51.528;7.192;2022-10-13T02:00:14;12.00;;;8.80;;
18066;SDS011;9158;51.528;7.192;2022-10-13T02:00:52;8.95;;;7.60;;
18066;SDS011;9158;51.528;7.192;2022-10-13T02:01:38;8.70;;;7.47;;
18066;SDS011;9158;51.528;7.192;2022-10-13T02:02:25;9.90;;;8.27;;
18066;SDS011;9158;51.528;7.192;2022-10-13T02:03:04;13.27;;;7.43;;
18066;SDS011;9158;51.528;7.192;2022-10-13T02:03:44;10.80;;;7.45;;
18066;SDS011;9158;51.528;7.192;2022-10-13T02:04:24;9.00;;;7.43;;
18066;SDS011;9158;51.528;7.192;2022-10-13T02:05:06;13.00;;;7.55;;
18066;SDS011;9158;51.528;7.192;2022-10-13T02:05:43;13.10;;;8.18;;
18066;SDS011;9158;51.528;7.192;2022-10-13T02:06:20;10.63;;;7.50;;
18066;SDS011;9158;51.528;7.192;2022-10-13T02:06:54;10.63;;;8.00;;
18066;SDS011;9158;51.528;7.192;2022-10-13T02:07:30;8.98;;;7.65;;
18066;SDS011;9158;51.528;7.192;2022-10-13T02:08:09;11.98;;;7.65;;
18066;SDS011;9158;51.528;7.192;2022-10-13T02:08:49;13.23;;;8.05;;
18066;SDS011;9158;51.528;7.192;2022-10-13T02:09:27;12.90;;;7.30;;
18066;SDS011;9158;51.528;7.192;2022-10-13T02:10:08;11.07;;;7.47;;
18066;SDS011;9158;51.528;7.192;2022-10-13T02:10:49;8.75;;;7.85;;
18066;SDS011;9158;51.528;7.192;2022-10-13T02:11:22;11.88;;;8.45;;
18066;SDS011;9158;51.528;7.192;2022-10-13T02:11:57;15.18;;;8.60;;
18066;SDS011;9158;51.528;7.192;2022-10-13T02:12:33;11.43;;;8.40;;
18066;SDS011;9158;51.528;7.192;2022-10-13T02:13:08;12.18;;;8.50;;
18066;SDS011;9158;51.528;7.192;2022-10-13T02:13:44;9.02;;;7.32;;
18066;SDS011;9158;51.528;7.192;2022-10-13T02:14:27;9.45;;;7.63;;
18066;SDS011;9158;51.528;7.192;2022-10-13T02:15:00;14.98;;;7.80;;
18066;SDS011;9158;51.528;7.192;2022-10-13T02:15:39;10.75;;;8.20;;
18066;SDS011;9158;51.528;7.192;2022-10-13T02:16:15;11.50;;;7.53;;
18066;SDS011;9158;51.528;7.192;2022-10-13T02:16:46;11.55;;;7.43;;
18066;SDS011;9158;51.528;7.192;2022-10-13T02:17:20;10.52;;;7.45;;
18066;SDS011;9158;51.528;7.192;2022-10-13T02:17:52;10.57;;;8.20;;
18066;SDS011;9158;51.528;7.192;2022-10-13T02:18:24;10.57;;;7.82;;
18066;SDS011;9158;51.528;7.192;2022-10-13T02:18:59;9.80;;;8.48;;
18066;SDS011;9158;51.528;7.192;2022-10-13T02:19:35;11.07;;;8.30;;
18066;SDS011;9158;51.528;7.192;2022-10-13T02:20:08;10.95;;;6.75;;
18066;SDS011;9158;51.528;7.192;2022-10-13T02:20:41;10.23;;;7.35;;
18066;SDS011;9158;51.528;7.192;2022-10-13T02:21:13;11.05;;;7.70;;
18066;SDS011;9158;51.528;7.192;2022-10-13T02:21:46;13.30;;;7.68;;
18066;SDS011;9158;51.528;7.192;2022-10-13T02:22:19;11.43;;;7.97;;
18066;SDS011;9158;51.528;7.192;2022-10-13T02:22:53;13.88;;;7.70;;
18066;SDS011;9158;51.528;7.192;2022-10-13T02:23:29;9.93;;;7.07;;
18066;SDS011;9158;51.528;7.192;2022-10-13T02:24:02;12.05;;;8.32;;
18066;SDS011;9158;51.528;7.192;2022-10-13T02:24:34;14.45;;;9.32;;
18066;SDS011;9158;51.528;7.192;2022-10-13T02:25:06;11.60;;;8.05;;
18066;SDS011;9158;51.528;7.192;2022-10-13T02:25:39;10.00;;;7.38;;
18066;SDS011;9158;51.528;7.192;2022-10-13T02:26:10;8.25;;;6.93;;
18066;SDS011;9158;51.528;7.192;2022-10-13T02:26:43;11.30;;;7.75;;
18066;SDS011;9158;51.528;7.192;2022-10-13T02:27:15;10.30;;;7.50;;
18066;SDS011;9158;51.528;7.192;2022-10-13T02:27:46;11.25;;;8.38;;
18066;SDS011;9158;51.528;7.192;2022-10-13T02:28:17;10.20;;;7.73;;
18066;SDS011;9158;51.528;7.192;2022-10-13T02:28:50;9.68;;;7.72;;
18066;SDS011;9158;51.528;7.192;2022-10-13T02:29:21;11.10;;;8.23;;
18066;SDS011;9158;51.528;7.192;2022-10-13T02:29:52;7.83;;;6.93;;
18066;SDS011;9158;51.528;7.192;2022-10-13T02:30:30;10.57;;;7.78;;
18066;SDS011;9158;51.528;7.192;2022-10-13T02:31:02;17.27;;;7.70;;
18066;SDS011;9158;51.528;7.192;2022-10-13T02:31:37;9.63;;;6.90;;
18066;SDS011;9158;51.528;7.192;2022-10-13T02:32:09;11.50;;;8.57;;
18066;SDS011;9158;51.528;7.192;2022-10-13T02:32:40;14.30;;;9.03;;
18066;SDS011;9158;51.528;7.192;2022-10-13T02:33:12;11.30;;;7.43;;
18066;SDS011;9158;51.528;7.192;2022-10-13T02:33:44;11.30;;;8.20;;
18066;SDS011;9158;51.528;7.192;2022-10-13T02:34:15;10.60;;;7.30;;
18066;SDS011;9158;51.528;7.192;2022-10-13T02:34:50;15.73;;;8.88;;
18066;SDS011;9158;51.528;7.192;2022-10-13T02:35:21;13.48;;;8.73;;
18066;SDS011;9158;51.528;7.192;2022-10-13T02:35:53;11.38;;;7.60;;
18066;SDS011;9158;51.528;7.192;2022-10-13T02:36:25;9.10;;;7.05;;
18066;SDS011;9158;51.528;7.192;2022-10-13T02:36:57;11.00;;;7.50;;
18066;SDS011;9158;51.528;7.192;2022-10-13T02:37:28;11.13;;;6.90;;
18066;SDS011;9158;51.528;7.192;2022-10-13T02:38:00;10.10;;;7.55;;
18066;SDS011;9158;51.528;7.192;2022-10-13T02:38:31;9.40;;;7.60;;
18066;SDS011;9158;51.528;7.192;2022-10-13T02:39:02;13.30;;;8.20;;
18066;SDS011;9158;51.528;7.192;2022-10-13T02:39:34;9.43;;;6.82;;
18066;SDS011;9158;51.528;7.192;2022-10-13T02:40:06;12.70;;;8.13;;
18066;SDS011;9158;51.528;7.192;2022-10-13T02:40:37;9.70;;;7.85;;
18066;SDS011;9158;51.528;7.192;2022-10-13T02:41:09;16.02;;;11.05;;
18066;SDS011;9158;51.528;7.192;2022-10-13T02:41:41;10.82;;;7.47;;
18066;SDS011;9158;51.528;7.192;2022-10-13T02:42:12;12.90;;;7.93;;
18066;SDS011;9158;51.528;7.192;2022-10-13T02:42:44;7.72;;;6.95;;
18066;SDS011;9158;51.528;7.192;2022-10-13T02:43:15;9.97;;;7.63;;
18066;SDS011;9158;51.528;7.192;2022-10-13T02:43:46;10.73;;;7.63;;
18066;SDS011;9158;51.528;7.192;2022-10-13T02:44:18;9.15;;;7.88;;
18066;SDS011;9158;51.528;7.192;2022-10-13T02:44:50;10.60;;;7.53;;
18066;SDS011;9158;51.528;7.192;2022-10-13T02:45:21;11.60;;;7.67;;
18066;SDS011;9158;51.528;7.192;2022-10-13T02:45:54;13.07;;;8.15;;
18066;SDS011;9158;51.528;7.192;2022-10-13T02:46:25;13.20;;;8.17;;
18066;SDS011;9158;51.528;7.192;2022-10-13T02:46:57;12.52;;;8.00;;
18066;SDS011;9158;51.528;7.192;2022-10-13T02:47:29;10.27;;;8.13;;
18066;SDS011;9158;51.528;7.192;2022-10-13T02:48:00;13.52;;;9.20;;
18066;SDS011;9158;51.528;7.192;2022-10-13T02:48:32;13.02;;;9.70;;
18066;SDS011;9158;51.528;7.192;2022-10-13T02:49:04;12.75;;;9.45;;
18066;SDS011;9158;51.528;7.192;2022-10-13T02:49:35;9.00;;;7.30;;
18066;SDS011;9158;51.528;7.192;2022-10-13T02:50:06;10.90;;;8.47;;
18066;SDS011;9158;51.528;7.192;2022-10-13T02:50:39;11.20;;;9.10;;
18066;SDS011;9158;51.528;7.192;2022-10-13T02:51:10;11.40;;;10.07;;
18066;SDS011;9158;51.528;7.192;2022-10-13T02:51:41;12.93;;;10.07;;
18066;SDS011;9158;51.528;7.192;2022-10-13T02:52:13;20.50;;;11.25;;
18066;SDS011;9158;51.528;7.192;2022-10-13T02:52:45;21.60;;;14.90;;
18066;SDS011;9158;51.528;7.192;2022-10-13T02:53:16;19.13;;;11.50;;
18066;SDS011;9158;51.528;7.192;2022-10-13T02:53:48;19.10;;;10.63;;
18066;SDS011;9158;51.528;7.192;2022-10-13T02:54:19;16.88;;;9.63;;
18066;SDS011;9158;51.528;7.192;2022-10-13T02:54:50;13.55;;;8.90;;
18066;SDS011;9158;51.528;7.192;2022-10-13T02:55:21;12.00;;;8.35;;
18066;SDS011;9158;51.528;7.192;2022-10-13T02:55:59;11.07;;;8.15;;
18066;SDS011;9158;51.528;7.192;2022-10-13T02:56:31;15.63;;;8.80;;
18066;SDS011;9158;51.528;7.192;2022-10-13T02:57:02;16.33;;;10.47;;
18066;SDS011;9158;51.528;7.192;2022-10-13T02:57:34;18.60;;;11.68;;
18066;SDS011;9158;51.528;7.192;2022-10-13T02:58:05;22.35;;;14.02;;
18066;SDS011;9158;51.528;7.192;2022-10-13T02:58:36;29.27;;;19.90;;
18066;SDS011;9158;51.528;7.192;2022-10-13T02:59:07;31.08;;;20.50;;
18066;SDS011;9158;51.528;7.192;2022-10-13T02:59:39;37.53;;;24.20;;
18066;SDS011;9158;51.528;7.192;2022-10-13T03:00:10;32.93;;;23.20;;
18066;SDS011;9158;51.528;7.192;2022-10-13T03:00:42;35.20;;;20.33;;
18066;SDS011;9158;51.528;7.192;2022-10-13T03:01:14;16.80;;;11.45;;
18066;SDS011;9158;51.528;7.192;2022-10-13T03:01:45;23.10;;;16.73;;
18066;SDS011;9158;51.528;7.192;2022-10-13T03:02:17;14.13;;;10.80;;
18066;SDS011;9158;51.528;7.192;2022-10-13T03:02:48;14.48;;;8.20;;
18066;SDS011;9158;51.528;7.192;2022-10-13T03:03:20;10.75;;;8.52;;
18066;SDS011;9158;51.528;7.192;2022-10-13T03:03:52;17.35;;;9.60;;
18066;SDS011;9158;51.528;7.192;2022-10-13T03:04:23;13.02;;;8.48;;
18066;SDS011;9158;51.528;7.192;2022-10-13T03:04:56;11.18;;;8.25;;
18066;SDS011;9158;51.528;7.192;2022-10-13T03:05:27;11.05;;;8.05;;
18066;SDS011;9158;51.528;7.192;2022-10-13T03:05:58;10.60;;;8.03;;
18066;SDS011;9158;51.528;7.192;2022-10-13T03:06:31;10.68;;;8.43;;
18066;SDS011;9158;51.528;7.192;2022-10-13T03:07:02;9.07;;;7.70;;
18066;SDS011;9158;51.528;7.192;2022-10-13T03:07:34;9.55;;;8.13;;
18066;SDS011;9158;51.528;7.192;2022-10-13T03:08:06;12.52;;;8.68;;
18066;SDS011;9158;51.528;7.192;2022-10-13T03:08:37;12.18;;;8.77;;
18066;SDS011;9158;51.528;7.192;2022-10-13T03:09:08;10.60;;;7.70;;
18066;SDS011;9158;51.528;7.192;2022-10-13T03:09:42;13.55;;;9.35;;
18066;SDS011;9158;51.528;7.192;2022-10-13T03:10:13;13.50;;;10.40;;
18066;SDS011;9158;51.528;7.192;2022-10-13T03:10:44;13.18;;;9.68;;
18066;SDS011;9158;51.528;7.192;2022-10-13T03:11:16;14.00;;;10.65;;
18066;SDS011;9158;51.528;7.192;2022-10-13T03:11:47;10.90;;;8.23;;
18066;SDS011;9158;51.528;7.192;2022-10-13T03:12:18;12.48;;;9.07;;
18066;SDS011;9158;51.528;7.192;2022-10-13T03:12:49;10.65;;;8.15;;
18066;SDS011;9158;51.528;7.192;2022-10-13T03:13:20;7.90;;;6.67;;
18066;SDS011;9158;51.528;7.192;2022-10-13T03:13:51;11.33;;;8.50;;
18066;SDS011;9158;51.528;7.192;2022-10-13T03:14:23;13.48;;;8.98;;
18066;SDS011;9158;51.528;7.192;2022-10-13T03:14:54;12.20;;;9.38;;
18066;SDS011;9158;51.528;7.192;2022-10-13T03:15:25;13.50;;;9.20;;
18066;SDS011;9158;51.528;7.192;2022-10-13T03:15:59;9.75;;;7.55;;
18066;SDS011;9158;51.528;7.192;2022-10-13T03:16:30;9.33;;;8.00;;
18066;SDS011;9158;51.528;7.192;2022-10-13T03:17:01;11.77;;;8.57;;
18066;SDS011;9158;51.528;7.192;2022-10-13T03:17:35;11.13;;;8.20;;
18066;SDS011;9158;51.528;7.192;2022-10-13T03:18:05;10.13;;;7.57;;
18066;SDS011;9158;51.528;7.192;2022-10-13T03:18:36;11.83;;;7.90;;
18066;SDS011;9158;51.528;7.192;2022-10-13T03:19:08;8.27;;;6.68;;
18066;SDS011;9158;51.528;7.192;2022-10-13T03:19:40;11.40;;;8.45;;
18066;SDS011;9158;51.528;7.192;2022-10-13T03:20:14;9.38;;;7.80;;
18066;SDS011;9158;51.528;7.192;2022-10-13T03:20:53;10.60;;;7.28;;
18066;SDS011;9158;51.528;7.192;2022-10-13T03:21:25;11.13;;;7.80;;
18066;SDS011;9158;51.528;7.192;2022-10-13T03:21:57;7.10;;;6.40;;
18066;SDS011;9158;51.528;7.192;2022-10-13T03:22:29;12.63;;;8.25;;
18066;SDS011;9158;51.528;7.192;2022-10-13T03:23:01;20.98;;;9.52;;
18066;SDS011;9158;51.528;7.192;2022-10-13T03:23:33;11.95;;;7.35;;
18066;SDS011;9158;51.528;7.192;2022-10-13T03:24:04;14.30;;;8.27;;
18066;SDS011;9158;51.528;7.192;2022-10-13T03:24:35;10.95;;;9.63;;
18066;SDS011;9158;51.528;7.192;2022-10-13T03:25:07;10.10;;;7.10;;
18066;SDS011;9158;51.528;7.192;2022-10-13T03:25:38;9.88;;;7.20;;
18066;SDS011;9158;51.528;7.192;2022-10-13T03:26:09;12.10;;;8.00;;
18066;SDS011;9158;51.528;7.192;2022-10-13T03:26:41;12.13;;;8.88;;
18066;SDS011;9158;51.528;7.192;2022-10-13T03:27:12;13.40;;;7.55;;
18066;SDS011;9158;51.528;7.192;2022-10-13T03:27:43;10.40;;;7.72;;
18066;SDS011;9158;51.528;7.192;2022-10-13T03:28:15;10.05;;;7.75;;